createdAt,value
2018-11-28T00:00:23.805Z,37.70
2018-11-28T00:02:26.740Z,40.80
2018-11-28T00:04:29.695Z,39.00
2018-11-28T00:06:32.643Z,39.70
2018-11-28T00:08:35.568Z,39.30
2018-11-28T00:10:38.528Z,32.33
2018-11-28T00:12:41.457Z,36.92
2018-11-28T00:14:44.424Z,34.90
2018-11-28T00:16:47.391Z,42.80
2018-11-28T00:18:51.676Z,36.15
2018-11-28T00:20:54.609Z,38.37
2018-11-28T00:22:58.595Z,40.03
2018-11-28T00:25:01.534Z,43.77
2018-11-28T00:27:04.556Z,35.03
2018-11-28T00:29:07.539Z,33.92
2018-11-28T00:31:11.240Z,33.85
2018-11-28T00:33:15.079Z,34.60
2018-11-28T00:35:18.028Z,38.30
2018-11-28T00:37:20.959Z,48.80
2018-11-28T00:39:24.121Z,37.45
2018-11-28T00:41:27.060Z,38.83
2018-11-28T00:43:29.996Z,36.58
2018-11-28T00:45:33.051Z,33.15
2018-11-28T00:47:35.977Z,38.03
2018-11-28T00:49:39.013Z,38.78
2018-11-28T00:51:42.745Z,37.30
2018-11-28T00:53:45.677Z,33.72
2018-11-28T00:55:49.390Z,30.67
2018-11-28T00:57:53.209Z,36.22
2018-11-28T00:59:56.142Z,35.90
2018-11-28T01:01:59.162Z,32.70
2018-11-28T01:04:02.879Z,39.42
2018-11-28T01:06:05.808Z,34.50
2018-11-28T01:08:08.755Z,40.33
2018-11-28T01:10:11.707Z,33.53
2018-11-28T01:12:15.415Z,36.67
2018-11-28T01:14:18.513Z,34.33
2018-11-28T01:16:21.474Z,44.88
2018-11-28T01:18:24.428Z,41.42
2018-11-28T01:20:27.391Z,36.03
2018-11-28T01:22:30.423Z,32.00
2018-11-28T01:24:34.228Z,33.22
2018-11-28T01:26:38.031Z,34.88
2018-11-28T01:28:46.322Z,37.53
2018-11-28T01:30:43.908Z,34.33
2018-11-28T01:32:46.881Z,34.08
2018-11-28T01:34:50.677Z,33.80
2018-11-28T01:36:54.479Z,43.23
2018-11-28T01:38:58.284Z,37.55
2018-11-28T01:41:01.980Z,34.17
2018-11-28T01:43:05.704Z,32.67
2018-11-28T01:45:08.735Z,32.13
2018-11-28T01:47:11.675Z,32.95
2018-11-28T01:49:14.753Z,33.55
2018-11-28T01:51:17.683Z,35.97
2018-11-28T01:53:20.942Z,41.28
2018-11-28T01:55:23.919Z,28.30
2018-11-28T01:57:26.851Z,34.13
2018-11-28T01:59:30.556Z,37.50
2018-11-28T02:01:33.527Z,31.62
2018-11-28T02:03:36.458Z,33.42
2018-11-28T02:05:39.416Z,29.00
2018-11-28T02:07:43.104Z,33.70
2018-11-28T02:09:46.818Z,40.67
2018-11-28T02:11:50.548Z,35.20
2018-11-28T02:13:53.602Z,37.55
2018-11-28T02:15:57.287Z,29.52
2018-11-28T02:18:01.105Z,32.60
2018-11-28T02:20:04.832Z,30.23
2018-11-28T02:22:07.763Z,35.10
2018-11-28T02:24:11.114Z,34.17
2018-11-28T02:26:14.043Z,34.55
2018-11-28T02:28:17.740Z,36.35
2018-11-28T02:30:21.598Z,27.60
2018-11-28T02:32:24.534Z,34.55
2018-11-28T02:34:28.235Z,30.85
2018-11-28T02:36:32.072Z,36.38
2018-11-28T02:38:35.003Z,26.40
2018-11-28T02:40:37.931Z,36.40
2018-11-28T02:42:41.061Z,34.53
2018-11-28T02:44:49.309Z,33.70
2018-11-28T02:46:52.246Z,27.35
2018-11-28T02:48:55.398Z,30.10
2018-11-28T02:50:58.333Z,37.15
2018-11-28T02:53:01.895Z,30.20
2018-11-28T02:55:04.858Z,48.17
2018-11-28T02:57:07.921Z,30.02
2018-11-28T02:59:11.721Z,34.28
2018-11-28T03:01:15.570Z,38.90
2018-11-28T03:03:18.614Z,31.10
2018-11-28T03:05:22.438Z,28.23
2018-11-28T03:07:26.144Z,29.87
2018-11-28T03:09:29.065Z,37.50
2018-11-28T03:11:32.005Z,30.57
2018-11-28T03:13:35.889Z,33.67
2018-11-28T03:15:38.831Z,29.27
2018-11-28T03:17:41.765Z,29.40
2018-11-28T03:19:44.849Z,35.50
2018-11-28T03:21:47.791Z,29.87
2018-11-28T03:23:50.728Z,30.33
2018-11-28T03:25:53.802Z,35.65
2018-11-28T03:27:56.738Z,24.10
2018-11-28T03:30:01.201Z,36.17
2018-11-28T03:32:04.337Z,29.60
2018-11-28T03:34:07.348Z,28.62
2018-11-28T03:36:11.067Z,33.35
2018-11-28T03:38:14.167Z,27.48
2018-11-28T03:40:17.221Z,40.33
2018-11-28T03:42:20.182Z,31.80
2018-11-28T03:44:24.009Z,38.20
2018-11-28T03:46:27.818Z,28.87
2018-11-28T03:48:30.778Z,36.33
2018-11-28T03:50:34.617Z,30.58
2018-11-28T03:52:37.556Z,30.73
2018-11-28T03:54:40.481Z,22.87
2018-11-28T03:56:43.873Z,30.00
2018-11-28T03:58:46.854Z,31.25
2018-11-28T04:00:49.803Z,23.65
2018-11-28T04:02:53.536Z,34.83
2018-11-28T04:04:56.466Z,47.42
2018-11-28T04:06:59.401Z,28.98
2018-11-28T04:09:02.549Z,36.70
2018-11-28T04:11:05.481Z,32.55
2018-11-28T04:13:08.412Z,42.00
2018-11-28T04:15:11.546Z,39.60
2018-11-28T04:17:14.483Z,45.53
2018-11-28T04:19:18.197Z,36.88
2018-11-28T04:21:22.141Z,45.30
2018-11-28T04:23:25.072Z,40.40
2018-11-28T04:25:28.014Z,30.40
2018-11-28T04:27:31.001Z,31.37
2018-11-28T04:29:33.949Z,29.42
2018-11-28T04:31:37.633Z,33.45
2018-11-28T04:33:40.754Z,31.62
2018-11-28T04:35:43.721Z,38.40
2018-11-28T04:37:46.663Z,33.40
2018-11-28T04:39:50.539Z,28.63
2018-11-28T04:41:53.491Z,43.10
2018-11-28T04:43:56.453Z,35.90
2018-11-28T04:46:00.282Z,48.13
2018-11-28T04:48:03.238Z,38.23
2018-11-28T04:50:06.241Z,35.58
2018-11-28T04:52:09.350Z,45.58
2018-11-28T04:54:12.993Z,33.40
2018-11-28T04:56:15.929Z,35.63
2018-11-28T04:58:19.013Z,29.60
2018-11-28T05:00:22.029Z,30.77
2018-11-28T05:02:25.041Z,31.35
2018-11-28T05:04:28.785Z,29.87
2018-11-28T05:06:31.724Z,31.05
2018-11-28T05:08:35.526Z,26.53
2018-11-28T05:10:39.362Z,32.58
2018-11-28T05:12:42.298Z,27.35
2018-11-28T05:14:46.113Z,35.38
2018-11-28T05:16:49.851Z,32.50
2018-11-28T05:18:52.899Z,29.92
2018-11-28T05:20:56.585Z,30.40
2018-11-28T05:22:59.721Z,37.72
2018-11-28T05:25:02.674Z,29.30
2018-11-28T05:27:06.380Z,26.92
2018-11-28T05:29:09.454Z,34.03
2018-11-28T05:31:13.153Z,45.17
2018-11-28T05:33:16.218Z,32.95
2018-11-28T05:35:19.198Z,24.45
2018-11-28T05:37:22.136Z,29.10
2018-11-28T05:39:25.076Z,29.00
2018-11-28T05:41:28.818Z,30.25
2018-11-28T05:43:31.749Z,31.62
2018-11-28T05:45:35.447Z,27.37
2018-11-28T05:47:39.193Z,30.33
2018-11-28T05:49:42.130Z,35.50
2018-11-28T05:51:45.073Z,32.70
2018-11-28T05:53:48.142Z,29.42
2018-11-28T05:55:51.082Z,28.70
2018-11-28T05:57:54.901Z,31.42
2018-11-28T05:59:58.649Z,40.60
2018-11-28T06:02:01.581Z,27.62
2018-11-28T06:04:05.283Z,29.40
2018-11-28T06:06:09.024Z,33.17
2018-11-28T06:08:12.080Z,32.65
2018-11-28T06:10:15.012Z,26.10
2018-11-28T06:12:17.988Z,27.83
2018-11-28T06:14:21.019Z,30.90
2018-11-28T06:16:24.720Z,26.23
2018-11-28T06:18:28.862Z,38.28
2018-11-28T06:20:31.913Z,39.15
2018-11-28T06:22:35.613Z,32.35
2018-11-28T06:24:39.620Z,27.95
2018-11-28T06:26:43.422Z,29.55
2018-11-28T06:28:47.122Z,28.10
2018-11-28T06:30:50.847Z,25.12
2018-11-28T06:32:53.907Z,27.67
2018-11-28T06:34:57.607Z,32.70
2018-11-28T06:37:01.341Z,25.58
2018-11-28T06:39:04.288Z,24.02
2018-11-28T06:41:07.232Z,48.13
2018-11-28T06:43:10.358Z,31.83
2018-11-28T06:45:14.060Z,31.55
2018-11-28T06:47:16.997Z,37.22
2018-11-28T06:49:19.961Z,30.58
2018-11-28T06:51:23.321Z,24.50
2018-11-28T06:53:26.245Z,25.58
2018-11-28T06:55:29.253Z,32.53
2018-11-28T06:57:32.293Z,29.27
2018-11-28T06:59:35.224Z,27.13
2018-11-28T07:01:38.365Z,30.65
2018-11-28T07:03:41.297Z,30.90
2018-11-28T07:05:44.234Z,33.07
2018-11-28T07:07:47.311Z,33.00
2018-11-28T07:09:50.903Z,27.50
2018-11-28T07:11:53.837Z,30.90
2018-11-28T07:13:56.813Z,27.55
2018-11-28T07:15:59.737Z,33.50
2018-11-28T07:18:03.429Z,39.40
2018-11-28T07:20:06.421Z,32.17
2018-11-28T07:22:09.361Z,35.85
2018-11-28T07:24:13.915Z,38.75
2018-11-28T07:26:17.641Z,29.15
2018-11-28T07:28:20.579Z,42.67
2018-11-28T07:30:24.277Z,34.75
2018-11-28T07:32:27.418Z,37.20
2018-11-28T07:34:30.363Z,31.42
2018-11-28T07:36:33.321Z,32.42
2018-11-28T07:38:37.795Z,28.30
2018-11-28T07:40:40.725Z,38.92
2018-11-28T07:42:44.428Z,28.15
2018-11-28T07:44:47.414Z,36.60
2018-11-28T07:46:51.044Z,36.17
2018-11-28T07:48:54.012Z,28.23
2018-11-28T07:50:57.746Z,35.33
2018-11-28T07:53:00.668Z,29.67
2018-11-28T07:55:03.618Z,32.58
2018-11-28T07:57:06.712Z,29.80
2018-11-28T07:59:09.744Z,34.85
2018-11-28T08:01:13.461Z,33.88
2018-11-28T08:03:16.567Z,30.43
2018-11-28T08:05:19.497Z,37.13
2018-11-28T08:07:23.225Z,29.70
2018-11-28T08:09:26.340Z,32.53
2018-11-28T08:11:29.382Z,32.92
2018-11-28T08:13:33.094Z,37.42
2018-11-28T08:15:36.173Z,30.67
2018-11-28T08:17:39.893Z,38.70
2018-11-28T08:19:42.853Z,35.67
2018-11-28T08:21:46.577Z,36.60
2018-11-28T08:23:49.635Z,33.08
2018-11-28T08:25:53.331Z,34.73
2018-11-28T08:27:57.376Z,24.95
2018-11-28T08:30:00.244Z,35.57
2018-11-28T08:32:03.229Z,28.87
2018-11-28T08:34:06.292Z,35.45
2018-11-28T08:36:10.018Z,38.92
2018-11-28T08:38:13.078Z,33.92
2018-11-28T08:40:17.252Z,29.60
2018-11-28T08:42:20.203Z,26.17
2018-11-28T08:44:23.128Z,35.13
2018-11-28T08:46:26.967Z,35.75
2018-11-28T08:48:30.653Z,28.92
2018-11-28T08:50:34.361Z,36.40
2018-11-28T08:52:37.489Z,32.30
2018-11-28T08:54:40.425Z,33.63
2018-11-28T08:56:44.784Z,36.47
2018-11-28T08:58:47.760Z,29.90
2018-11-28T09:00:50.806Z,31.83
2018-11-28T09:02:54.510Z,33.40
2018-11-28T09:04:57.729Z,31.45
2018-11-28T09:07:00.661Z,32.07
2018-11-28T09:09:03.709Z,30.40
2018-11-28T09:11:06.709Z,25.98
2018-11-28T09:13:09.729Z,33.53
2018-11-28T09:15:13.449Z,31.52
2018-11-28T09:17:16.419Z,32.67
2018-11-28T09:19:19.360Z,38.33
2018-11-28T09:21:23.197Z,32.63
2018-11-28T09:23:27.672Z,40.17
2018-11-28T09:25:30.699Z,33.83
2018-11-28T09:27:34.501Z,31.25
2018-11-28T09:29:38.270Z,40.10
2018-11-28T09:31:42.929Z,33.85
2018-11-28T09:33:45.875Z,36.92
2018-11-28T09:35:48.858Z,33.92
2018-11-28T09:37:51.875Z,38.25
2018-11-28T09:39:55.570Z,29.42
2018-11-28T09:41:59.488Z,32.42
2018-11-28T09:44:02.461Z,32.50
2018-11-28T09:46:06.264Z,42.62
2018-11-28T09:48:10.017Z,29.37
2018-11-28T09:50:13.049Z,33.87
2018-11-28T09:52:16.765Z,31.83
2018-11-28T09:54:20.681Z,38.22
2018-11-28T09:56:23.613Z,34.03
2018-11-28T09:58:26.540Z,34.40
2018-11-28T10:00:29.857Z,28.77
2018-11-28T10:02:32.713Z,33.45
2018-11-28T10:04:35.672Z,31.75
2018-11-28T10:06:39.528Z,28.90
2018-11-28T10:08:42.458Z,40.50
2018-11-28T10:10:46.262Z,42.05
2018-11-28T10:12:50.002Z,41.45
2018-11-28T10:14:52.932Z,32.10
2018-11-28T10:16:57.015Z,34.53
2018-11-28T10:18:59.669Z,32.97
2018-11-28T10:21:02.608Z,28.58
2018-11-28T10:23:06.309Z,33.90
2018-11-28T10:25:10.152Z,30.37
2018-11-28T10:27:13.102Z,36.58
2018-11-28T10:29:16.066Z,40.38
2018-11-28T10:31:19.847Z,29.40
2018-11-28T10:33:22.785Z,36.70
2018-11-28T10:35:25.719Z,36.53
2018-11-28T10:37:28.857Z,32.05
2018-11-28T10:39:31.797Z,35.15
2018-11-28T10:41:35.519Z,39.78
2018-11-28T10:43:38.557Z,34.17
2018-11-28T10:45:41.513Z,44.20
2018-11-28T10:47:44.450Z,39.85
2018-11-28T10:49:48.193Z,33.97
2018-11-28T10:51:51.131Z,30.42
2018-11-28T10:53:54.863Z,39.67
2018-11-28T10:55:57.826Z,36.40
2018-11-28T10:58:01.549Z,36.43
2018-11-28T11:00:04.482Z,31.33
2018-11-28T11:02:07.477Z,36.42
2018-11-28T11:04:11.192Z,33.35
2018-11-28T11:06:14.169Z,38.92
2018-11-28T11:08:24.643Z,32.30
2018-11-28T11:10:33.250Z,40.38
2018-11-28T11:12:36.978Z,43.47
2018-11-28T11:14:40.881Z,36.53
2018-11-28T11:16:43.868Z,31.20
2018-11-28T11:18:46.798Z,38.93
2018-11-28T11:20:49.760Z,34.83
2018-11-28T11:22:52.693Z,32.90
2018-11-28T11:24:55.640Z,36.80
2018-11-28T11:26:58.648Z,37.90
2018-11-28T11:29:02.438Z,31.83
2018-11-28T11:31:05.360Z,26.43
2018-11-28T11:33:09.994Z,33.15
2018-11-28T11:35:13.025Z,36.33
2018-11-28T11:37:16.841Z,32.42
2018-11-28T11:39:20.677Z,35.45
2018-11-28T11:41:23.629Z,28.40
2018-11-28T11:43:27.349Z,30.57
2018-11-28T11:45:30.319Z,42.15
2018-11-28T11:47:33.267Z,44.53
2018-11-28T11:49:36.204Z,31.65
2018-11-28T11:51:39.306Z,29.15
2018-11-28T11:53:43.090Z,37.75
2018-11-28T11:55:46.145Z,29.80
2018-11-28T11:57:49.901Z,31.27
2018-11-28T11:59:52.865Z,28.80
2018-11-28T12:01:55.826Z,36.05
2018-11-28T12:03:58.979Z,44.33
2018-11-28T12:06:01.868Z,27.02
2018-11-28T12:08:05.585Z,27.30
2018-11-28T12:10:09.041Z,29.15
2018-11-28T12:12:12.457Z,30.02
2018-11-28T12:14:16.271Z,29.65
2018-11-28T12:16:21.623Z,26.37
2018-11-28T12:18:22.962Z,35.13
2018-11-28T12:20:25.905Z,24.70
2018-11-28T12:22:28.877Z,32.10
2018-11-28T12:24:31.838Z,28.27
2018-11-28T12:26:34.890Z,26.52
2018-11-28T12:28:38.277Z,30.25
2018-11-28T12:30:42.591Z,33.78
2018-11-28T12:32:45.677Z,23.90
2018-11-28T12:34:50.496Z,28.27
2018-11-28T12:36:51.851Z,30.52
2018-11-28T12:38:54.827Z,26.17
2018-11-28T12:40:58.765Z,28.92
2018-11-28T12:43:01.824Z,28.73
2018-11-28T12:45:04.782Z,27.08
2018-11-28T12:47:08.606Z,27.87
2018-11-28T12:49:11.555Z,36.97
2018-11-28T12:51:14.513Z,31.57
2018-11-28T12:53:17.473Z,26.27
2018-11-28T12:55:20.426Z,28.43
2018-11-28T12:57:23.465Z,32.05
2018-11-28T12:59:26.641Z,30.30
2018-11-28T13:01:29.588Z,33.70
2018-11-28T13:03:33.394Z,29.00
2018-11-28T13:05:37.344Z,35.80
2018-11-28T13:07:40.395Z,26.83
2018-11-28T13:09:43.468Z,28.27
2018-11-28T13:11:47.209Z,26.40
2018-11-28T13:13:50.161Z,29.03
2018-11-28T13:15:53.126Z,31.27
2018-11-28T13:17:56.961Z,38.85
2018-11-28T13:19:59.894Z,28.87
2018-11-28T13:22:03.603Z,31.37
2018-11-28T13:24:06.736Z,32.13
2018-11-28T13:26:09.819Z,29.17
2018-11-28T13:28:12.762Z,27.42
2018-11-28T13:30:15.741Z,28.05
2018-11-28T13:32:18.680Z,31.00
2018-11-28T13:34:21.617Z,32.08
2018-11-28T13:36:24.606Z,33.85
2018-11-28T13:38:27.590Z,27.75
2018-11-28T13:40:31.383Z,24.23
2018-11-28T13:42:35.117Z,28.58
2018-11-28T13:44:38.051Z,30.33
2018-11-28T13:46:42.619Z,24.63
2018-11-28T13:48:45.682Z,27.05
2018-11-28T13:50:49.645Z,29.83
2018-11-28T13:52:52.348Z,24.13
2018-11-28T13:55:38.597Z,28.00
2018-11-28T13:57:03.681Z,25.92
2018-11-28T13:59:02.825Z,22.10
2018-11-28T14:01:06.686Z,27.00
2018-11-28T14:03:09.748Z,29.30
2018-11-28T14:05:12.817Z,22.67
2018-11-28T14:07:16.580Z,22.13
2018-11-28T14:09:19.534Z,24.03
2018-11-28T14:11:22.490Z,24.48
2018-11-28T14:13:25.627Z,26.80
2018-11-28T14:15:28.529Z,25.08
2018-11-28T14:17:31.534Z,23.73
2018-11-28T14:19:35.289Z,21.93
2018-11-28T14:21:38.320Z,22.20
2018-11-28T14:23:41.325Z,20.88
2018-11-28T14:25:44.513Z,23.48
2018-11-28T14:27:47.452Z,19.30
2018-11-28T14:29:51.280Z,17.83
2018-11-28T14:31:54.289Z,23.80
2018-11-28T14:33:57.222Z,16.37
2018-11-28T14:36:00.204Z,21.67
2018-11-28T14:38:03.297Z,18.03
2018-11-28T14:40:06.420Z,21.12
2018-11-28T14:42:09.370Z,21.40
2018-11-28T14:44:13.237Z,20.60
2018-11-28T14:46:16.175Z,19.23
2018-11-28T14:48:19.148Z,23.87
2018-11-28T14:50:22.217Z,18.70
2018-11-28T14:52:25.920Z,16.73
2018-11-28T14:54:28.873Z,21.30
2018-11-28T14:56:31.865Z,17.62
2018-11-28T14:58:34.805Z,18.13
2018-11-28T15:00:37.866Z,18.17
2018-11-28T15:02:41.640Z,19.95
2018-11-28T15:04:45.370Z,20.83
2018-11-28T15:06:48.312Z,18.35
2018-11-28T15:08:51.294Z,19.90
2018-11-28T15:10:54.317Z,17.27
2018-11-28T15:12:58.120Z,25.12
2018-11-28T15:15:01.869Z,18.27
2018-11-28T15:17:04.905Z,25.00
2018-11-28T15:19:08.621Z,17.60
2018-11-28T15:21:12.452Z,19.65
2018-11-28T15:23:15.401Z,21.98
2018-11-28T15:25:18.340Z,15.40
2018-11-28T15:27:22.200Z,18.92
2018-11-28T15:29:25.161Z,24.42
2018-11-28T15:31:28.097Z,18.45
2018-11-28T15:33:31.432Z,14.48
2018-11-28T15:35:35.233Z,20.30
2018-11-28T15:37:38.177Z,20.50
2018-11-28T15:39:41.324Z,21.55
2018-11-28T15:41:44.891Z,23.35
2018-11-28T15:43:48.590Z,19.55
2018-11-28T15:45:52.341Z,16.27
2018-11-28T15:47:55.522Z,19.52
2018-11-28T15:49:58.474Z,24.08
2018-11-28T15:52:01.582Z,16.65
2018-11-28T15:54:04.530Z,19.92
2018-11-28T15:56:07.515Z,16.75
2018-11-28T15:58:11.249Z,17.40
2018-11-28T16:00:14.172Z,19.30
2018-11-28T16:02:17.129Z,22.03
2018-11-28T16:04:20.317Z,21.37
2018-11-28T16:06:23.325Z,17.27
2018-11-28T16:08:26.269Z,20.95
2018-11-28T16:10:31.863Z,19.30
2018-11-28T16:12:35.687Z,23.08
2018-11-28T16:14:39.419Z,19.12
2018-11-28T16:16:42.404Z,20.13
2018-11-28T16:18:45.482Z,19.90
2018-11-28T16:20:48.462Z,18.52
2018-11-28T16:22:51.478Z,24.43
2018-11-28T16:24:54.421Z,23.60
2018-11-28T16:26:57.372Z,25.50
2018-11-28T16:29:01.230Z,21.27
2018-11-28T16:31:04.280Z,21.77
2018-11-28T16:33:08.004Z,20.50
2018-11-28T16:35:10.965Z,27.45
2018-11-28T16:37:13.909Z,19.52
2018-11-28T16:39:16.846Z,18.85
2018-11-28T16:41:19.839Z,19.05
2018-11-28T16:43:22.769Z,18.17
2018-11-28T16:45:25.791Z,19.20
2018-11-28T16:47:28.884Z,20.43
2018-11-28T16:49:31.821Z,19.73
2018-11-28T16:51:35.522Z,20.00
2018-11-28T16:53:39.710Z,24.15
2018-11-28T16:55:42.656Z,17.45
2018-11-28T16:57:45.593Z,15.68
2018-11-28T16:59:49.407Z,18.10
2018-11-28T17:01:53.152Z,16.73
2018-11-28T17:03:56.113Z,21.10
2018-11-28T17:05:59.203Z,18.15
2018-11-28T17:08:02.137Z,17.25
2018-11-28T17:10:05.109Z,21.23
2018-11-28T17:12:08.111Z,17.00
2018-11-28T17:14:11.055Z,21.70
2018-11-28T17:16:14.102Z,18.65
2018-11-28T17:18:17.856Z,22.23
2018-11-28T17:20:20.802Z,18.52
2018-11-28T17:22:23.748Z,23.95
2018-11-28T17:24:27.706Z,22.30
2018-11-28T17:26:30.673Z,26.95
2018-11-28T17:28:33.626Z,20.40
2018-11-28T17:30:37.397Z,18.52
2018-11-28T17:32:42.165Z,20.50
2018-11-28T17:34:45.971Z,18.70
2018-11-28T17:36:49.052Z,21.37
2018-11-28T17:38:51.997Z,19.60
2018-11-28T17:40:56.479Z,18.37
2018-11-28T17:42:59.499Z,20.92
2018-11-28T17:45:02.418Z,19.27
2018-11-28T17:47:05.374Z,17.08
2018-11-28T17:49:08.523Z,21.08
2018-11-28T17:51:11.570Z,19.93
2018-11-28T17:53:15.273Z,23.65
2018-11-28T17:55:18.572Z,22.87
2018-11-28T17:57:21.514Z,24.17
2018-11-28T17:59:24.459Z,24.00
2018-11-28T18:01:27.533Z,16.15
2018-11-28T18:03:30.493Z,19.10
2018-11-28T18:05:34.193Z,15.95
2018-11-28T18:07:37.958Z,19.90
2018-11-28T18:09:40.922Z,15.93
2018-11-28T18:11:43.859Z,16.60
2018-11-28T18:13:47.578Z,18.53
2018-11-28T18:15:51.372Z,19.27
2018-11-28T18:17:54.324Z,19.50
2018-11-28T18:19:58.193Z,21.65
2018-11-28T18:22:01.136Z,17.95
2018-11-28T18:24:04.081Z,18.23
2018-11-28T18:26:07.070Z,15.95
2018-11-28T18:28:11.113Z,19.50
2018-11-28T18:30:14.399Z,17.02
2018-11-28T18:32:17.398Z,17.23
2018-11-28T18:34:20.372Z,19.10
2018-11-28T18:36:23.312Z,19.30
2018-11-28T18:38:27.166Z,20.17
2018-11-28T18:40:30.100Z,16.90
2018-11-28T18:42:33.024Z,20.73
2018-11-28T18:44:36.977Z,18.00
2018-11-28T18:46:39.905Z,17.02
2018-11-28T18:48:42.852Z,20.37
2018-11-28T18:50:46.001Z,21.77
2018-11-28T18:52:48.934Z,16.75
2018-11-28T18:54:52.665Z,24.17
2018-11-28T18:56:55.653Z,23.10
2018-11-28T18:58:58.589Z,21.15
2018-11-28T19:01:01.513Z,22.53
2018-11-28T19:03:04.580Z,20.80
2018-11-28T19:05:08.977Z,13.07
2018-11-28T19:07:11.956Z,18.40
2018-11-28T19:09:15.004Z,17.12
2018-11-28T19:11:18.024Z,13.05
2018-11-28T19:13:21.731Z,11.32
2018-11-28T19:15:24.867Z,20.37
2018-11-28T19:17:28.137Z,14.52
2018-11-28T19:19:31.071Z,17.00
2018-11-28T19:21:34.405Z,14.18
2018-11-28T19:23:37.339Z,14.98
2018-11-28T19:25:40.362Z,11.70
2018-11-28T19:27:44.189Z,15.07
2018-11-28T19:29:47.131Z,16.70
2018-11-28T19:31:50.961Z,22.45
2018-11-28T19:33:54.077Z,12.80
2018-11-28T19:35:57.121Z,14.15
2018-11-28T19:38:00.923Z,13.43
2018-11-28T19:40:04.669Z,15.83
2018-11-28T19:42:07.709Z,21.25
2018-11-28T19:44:11.511Z,20.20
2018-11-28T19:46:14.561Z,19.48
2018-11-28T19:48:17.497Z,19.25
2018-11-28T19:50:20.425Z,17.20
2018-11-28T19:52:23.585Z,20.12
2018-11-28T19:54:26.633Z,15.32
2018-11-28T19:56:29.569Z,14.85
2018-11-28T19:58:32.524Z,13.27
2018-11-28T20:00:35.448Z,14.30
2018-11-28T20:02:38.402Z,14.52
2018-11-28T20:04:41.370Z,14.43
2018-11-28T20:06:45.042Z,13.98
2018-11-28T20:08:48.029Z,16.42
2018-11-28T20:10:51.018Z,18.83
2018-11-28T20:12:53.974Z,19.57
2018-11-28T20:14:56.907Z,17.45
2018-11-28T20:16:59.873Z,15.63
2018-11-28T20:19:02.813Z,16.58
2018-11-28T20:21:05.772Z,18.77
2018-11-28T20:23:08.940Z,16.93
2018-11-28T20:25:11.895Z,13.23
2018-11-28T20:27:15.694Z,13.15
2018-11-28T20:29:19.497Z,13.87
2018-11-28T20:31:23.202Z,16.03
2018-11-28T20:33:26.180Z,15.30
2018-11-28T20:35:29.469Z,19.90
2018-11-28T20:37:32.425Z,15.38
2018-11-28T20:39:35.386Z,16.33
2018-11-28T20:41:38.381Z,13.27
2018-11-28T20:43:42.117Z,16.17
2018-11-28T20:45:45.061Z,15.68
2018-11-28T20:47:48.052Z,16.02
2018-11-28T20:49:52.514Z,14.40
2018-11-28T20:51:55.457Z,13.45
2018-11-28T20:53:59.312Z,17.55
2018-11-28T20:56:02.263Z,16.00
2018-11-28T20:58:05.991Z,17.95
2018-11-28T21:00:08.966Z,17.30
2018-11-28T21:02:11.932Z,20.67
2018-11-28T21:04:14.878Z,20.48
2018-11-28T21:06:18.641Z,20.45
2018-11-28T21:08:21.585Z,17.70
2018-11-28T21:10:25.299Z,15.25
2018-11-28T21:12:29.026Z,20.92
2018-11-28T21:14:32.001Z,19.90
2018-11-28T21:16:34.940Z,17.17
2018-11-28T21:18:37.931Z,18.97
2018-11-28T21:20:41.639Z,20.07
2018-11-28T21:22:44.656Z,17.35
2018-11-28T21:24:47.894Z,22.75
2018-11-28T21:26:50.827Z,18.80
2018-11-28T21:28:53.768Z,22.52
2018-11-28T21:30:57.521Z,14.87
2018-11-28T21:33:00.468Z,21.20
2018-11-28T21:35:04.177Z,19.85
2018-11-28T21:37:07.427Z,16.52
2018-11-28T21:39:11.262Z,18.05
2018-11-28T21:41:14.217Z,19.27
2018-11-28T21:43:17.959Z,17.98
2018-11-28T21:45:20.894Z,17.33
2018-11-28T21:47:23.873Z,21.73
2018-11-28T21:49:26.853Z,18.48
2018-11-28T21:51:29.804Z,23.55
2018-11-28T21:53:32.756Z,15.45
2018-11-28T21:55:35.734Z,22.90
2018-11-28T21:57:39.540Z,19.75
2018-11-28T21:59:43.450Z,18.40
2018-11-28T22:01:46.482Z,17.58
2018-11-28T22:03:49.513Z,16.83
2018-11-28T22:05:53.213Z,20.50
2018-11-28T22:07:56.300Z,17.52
2018-11-28T22:09:59.244Z,23.25
2018-11-28T22:12:02.194Z,20.00
2018-11-28T22:14:05.279Z,21.60
2018-11-28T22:16:08.233Z,23.48
2018-11-28T22:18:12.058Z,24.75
2018-11-28T22:20:14.942Z,15.50
2018-11-28T22:22:17.999Z,18.52
2018-11-28T22:24:21.802Z,20.25
2018-11-28T22:26:25.536Z,17.33
2018-11-28T22:28:28.461Z,16.35
2018-11-28T22:30:31.400Z,20.90
2018-11-28T22:32:34.459Z,18.35
2018-11-28T22:34:37.396Z,17.50
2018-11-28T22:36:40.346Z,20.77
2018-11-28T22:38:43.301Z,20.52
2018-11-28T22:40:47.002Z,17.50
2018-11-28T22:42:50.717Z,15.00
2018-11-28T22:44:53.807Z,16.93
2018-11-28T22:46:56.837Z,23.52
2018-11-28T22:48:59.769Z,21.40
2018-11-28T22:51:02.743Z,22.73
2018-11-28T22:53:05.685Z,24.33
2018-11-28T22:55:08.640Z,22.15
2018-11-28T22:57:11.740Z,22.13
2018-11-28T22:59:14.769Z,19.73
2018-11-28T23:01:18.672Z,19.53
2018-11-28T23:03:22.440Z,17.50
2018-11-28T23:05:25.387Z,26.77
2018-11-28T23:07:28.323Z,19.33
2018-11-28T23:09:32.063Z,19.25
2018-11-28T23:11:34.992Z,15.40
2018-11-28T23:13:37.947Z,20.13
2018-11-28T23:15:40.927Z,23.85
2018-11-28T23:17:43.969Z,21.52
2018-11-28T23:19:46.925Z,17.92
2018-11-28T23:21:50.148Z,25.60
2018-11-28T23:23:52.841Z,15.35
2018-11-28T23:25:55.784Z,20.45
2018-11-28T23:27:58.854Z,17.27
2018-11-28T23:30:01.803Z,19.20
2018-11-28T23:32:04.813Z,13.70
2018-11-28T23:34:07.982Z,20.15
2018-11-28T23:36:10.949Z,18.42
2018-11-28T23:38:13.877Z,20.90
2018-11-28T23:40:17.022Z,21.02
2018-11-28T23:42:19.974Z,16.00
2018-11-28T23:44:23.694Z,17.37
2018-11-28T23:46:26.677Z,22.45
2018-11-28T23:48:29.626Z,16.00
2018-11-28T23:50:33.354Z,19.80
2018-11-28T23:52:36.422Z,14.63
2018-11-28T23:54:40.223Z,24.35
2018-11-28T23:56:43.183Z,17.95
2018-11-28T23:58:46.925Z,17.25
